createdAt,value
2023-04-15T00:00:43.236Z,61.5
2023-04-15T00:05:43.263Z,62.0
2023-04-15T00:10:43.340Z,62.0
2023-04-15T00:15:43.355Z,62.5
2023-04-15T00:20:43.253Z,61.5
2023-04-15T00:25:43.347Z,61.5
2023-04-15T00:30:43.361Z,62.0
2023-04-15T00:35:43.362Z,62.5
2023-04-15T00:40:43.249Z,63.0
2023-04-15T00:45:43.303Z,63.0
2023-04-15T00:50:43.347Z,63.0
2023-04-15T00:55:43.370Z,63.0
2023-04-15T01:00:43.357Z,63.0
2023-04-15T01:05:43.358Z,62.5
2023-04-15T01:10:43.253Z,62.5
2023-04-15T01:15:43.408Z,62.5
2023-04-15T01:20:43.363Z,62.5
2023-04-15T01:25:43.383Z,62.5
2023-04-15T01:30:43.372Z,63.0
2023-04-15T01:35:43.378Z,63.0
2023-04-15T01:40:43.369Z,63.0
2023-04-15T01:45:43.369Z,64.0
2023-04-15T01:50:43.389Z,66.5
2023-04-15T01:55:43.373Z,68.0
2023-04-15T02:00:43.401Z,69.0
2023-04-15T02:05:43.379Z,70.0
2023-04-15T02:10:43.372Z,69.5
2023-04-15T02:15:43.390Z,70.0
2023-04-15T02:20:43.386Z,68.5
2023-04-15T02:25:43.383Z,68.0
2023-04-15T02:30:43.412Z,67.5
2023-04-15T02:35:43.389Z,68.0
2023-04-15T02:40:43.389Z,69.0
2023-04-15T02:45:43.495Z,69.5
2023-04-15T02:50:43.396Z,70.5
2023-04-15T02:55:43.391Z,71.0
2023-04-15T03:00:43.418Z,71.0
2023-04-15T03:05:43.398Z,72.5
2023-04-15T03:10:43.396Z,73.5
2023-04-15T03:15:43.406Z,73.0
2023-04-15T03:20:43.416Z,74.0
2023-04-15T03:25:43.393Z,74.5
2023-04-15T03:30:43.398Z,74.5
2023-04-15T03:35:43.393Z,74.5
2023-04-15T03:40:43.398Z,75.0
2023-04-15T03:45:43.398Z,76.5
2023-04-15T03:50:43.405Z,77.0
2023-04-15T03:55:43.410Z,76.5
2023-04-15T04:00:43.412Z,76.0
2023-04-15T04:05:43.415Z,76.0
2023-04-15T04:10:43.409Z,76.5
2023-04-15T04:15:43.458Z,77.0
2023-04-15T04:20:43.413Z,76.0
2023-04-15T04:25:43.412Z,75.5
2023-04-15T04:30:43.426Z,76.0
2023-04-15T04:35:43.415Z,75.5
2023-04-15T04:40:43.424Z,75.0
2023-04-15T04:45:43.459Z,75.0
2023-04-15T04:50:43.414Z,74.5
2023-04-15T04:55:43.426Z,74.5
2023-04-15T05:00:43.416Z,74.0
2023-04-15T05:05:43.423Z,74.0
2023-04-15T05:10:43.426Z,74.0
2023-04-15T05:15:43.478Z,74.0
2023-04-15T05:20:43.465Z,74.0
2023-04-15T05:25:43.428Z,74.0
2023-04-15T05:30:43.430Z,74.5
2023-04-15T05:35:43.440Z,75.0
2023-04-15T05:40:43.433Z,75.0
2023-04-15T05:45:43.448Z,75.0
2023-04-15T05:50:43.442Z,75.0
2023-04-15T05:55:43.435Z,75.5
2023-04-15T06:00:43.451Z,76.5
2023-04-15T06:05:43.449Z,76.0
2023-04-15T06:10:43.451Z,76.5
2023-04-15T06:15:43.450Z,76.0
2023-04-15T06:20:43.451Z,76.5
2023-04-15T06:25:43.459Z,77.0
2023-04-15T06:30:43.462Z,77.0
2023-04-15T06:40:43.463Z,76.5
2023-04-15T06:45:43.479Z,77.0
2023-04-15T06:50:43.463Z,77.0
2023-04-15T06:55:43.358Z,77.5
2023-04-15T07:00:43.477Z,77.5
2023-04-15T07:05:43.382Z,77.0
2023-04-15T07:10:43.370Z,76.5
2023-04-15T07:15:43.392Z,76.0
2023-04-15T07:20:43.379Z,76.0
2023-04-15T07:25:43.379Z,76.0
2023-04-15T07:30:43.383Z,75.5
2023-04-15T07:35:43.388Z,75.5
2023-04-15T07:40:43.386Z,75.5
2023-04-15T07:45:43.492Z,75.5
2023-04-15T07:50:43.402Z,75.5
2023-04-15T07:55:43.458Z,75.0
2023-04-15T08:00:43.397Z,75.0
2023-04-15T08:05:43.400Z,74.5
2023-04-15T08:10:43.397Z,75.0
2023-04-15T08:15:43.429Z,74.0
2023-04-15T08:20:43.401Z,73.0
2023-04-15T08:25:43.416Z,72.5
2023-04-15T08:30:43.411Z,72.0
2023-04-15T08:35:43.409Z,71.5
2023-04-15T08:40:43.414Z,70.5
2023-04-15T08:45:43.414Z,70.0
2023-04-15T08:50:43.419Z,69.0
2023-04-15T08:55:43.433Z,68.0
2023-04-15T09:00:43.418Z,67.5
2023-04-15T09:05:43.455Z,67.0
2023-04-15T09:10:43.441Z,66.5
2023-04-15T09:15:43.453Z,66.0
2023-04-15T09:20:43.440Z,66.0
2023-04-15T09:25:43.428Z,66.0
2023-04-15T09:30:43.443Z,65.0
2023-04-15T09:35:43.433Z,65.0
2023-04-15T09:40:43.446Z,63.5
2023-04-15T09:45:43.520Z,63.5
2023-04-15T09:50:43.437Z,62.5
2023-04-15T09:55:43.451Z,62.5
2023-04-15T10:00:43.454Z,62.5
2023-04-15T10:05:43.465Z,61.5
2023-04-15T10:10:43.451Z,60.0
2023-04-15T10:15:43.472Z,59.5
2023-04-15T10:20:43.457Z,61.0
2023-04-15T10:25:43.464Z,61.0
2023-04-15T10:30:43.458Z,58.5
2023-04-15T10:35:43.465Z,59.0
2023-04-15T10:40:43.464Z,59.0
2023-04-15T10:45:43.473Z,59.0
2023-04-15T10:50:43.520Z,58.5
2023-04-15T10:55:43.472Z,57.5
2023-04-15T11:00:43.471Z,59.0
2023-04-15T11:05:43.482Z,58.5
2023-04-15T11:10:43.480Z,58.0
2023-04-15T11:15:43.473Z,58.5
2023-04-15T11:25:43.858Z,57.0
2023-04-15T11:30:43.484Z,58.5
2023-04-15T11:35:43.481Z,58.0
2023-04-15T11:40:46.204Z,56.5
2023-04-15T11:45:43.505Z,56.5
2023-04-15T11:50:43.497Z,57.5
2023-04-15T11:55:43.505Z,58.0
2023-04-15T12:00:43.504Z,55.0
2023-04-15T12:05:43.512Z,54.5
2023-04-15T12:10:43.504Z,55.5
2023-04-15T12:15:43.573Z,55.0
2023-04-15T12:20:43.540Z,55.0
2023-04-15T12:25:43.522Z,51.5
2023-04-15T12:30:43.513Z,53.5
2023-04-15T12:35:43.519Z,52.5
2023-04-15T12:40:43.525Z,52.5
2023-04-15T12:45:43.520Z,54.0
2023-04-15T12:50:43.522Z,52.5
2023-04-15T12:55:43.525Z,52.5
2023-04-15T13:00:43.525Z,51.0
2023-04-15T13:05:43.523Z,52.0
2023-04-15T13:10:43.533Z,51.0
2023-04-15T13:15:43.555Z,51.5
2023-04-15T13:20:43.543Z,50.5
2023-04-15T13:25:43.550Z,51.5
2023-04-15T13:30:43.548Z,51.0
2023-04-15T13:35:43.545Z,51.0
2023-04-15T13:40:43.567Z,51.5
2023-04-15T13:45:43.592Z,52.0
2023-04-15T13:50:43.549Z,51.5
2023-04-15T13:55:43.551Z,53.0
2023-04-15T14:00:43.545Z,53.0
2023-04-15T14:05:43.550Z,52.5
2023-04-15T14:10:43.551Z,53.0
2023-04-15T14:15:43.558Z,53.5
2023-04-15T14:20:43.556Z,53.5
2023-04-15T14:25:45.027Z,53.5
2023-04-15T14:30:43.626Z,53.0
2023-04-15T14:35:43.560Z,54.0
2023-04-15T14:40:43.564Z,53.5
2023-04-15T14:45:44.664Z,53.5
2023-04-15T14:50:43.566Z,53.0
2023-04-15T14:55:43.573Z,52.0
2023-04-15T15:00:43.575Z,53.0
2023-04-15T15:10:49.167Z,53.5
2023-04-15T15:15:43.617Z,54.5
2023-04-15T15:20:43.583Z,55.0
2023-04-15T15:25:43.583Z,56.5
2023-04-15T15:30:43.580Z,57.0
2023-04-15T15:35:43.580Z,58.0
2023-04-15T15:40:43.579Z,59.0
2023-04-15T15:45:43.583Z,59.5
2023-04-15T15:50:43.578Z,61.0
2023-04-15T15:55:43.581Z,61.5
2023-04-15T16:00:43.595Z,61.0
2023-04-15T16:05:43.593Z,62.0
2023-04-15T16:10:43.580Z,62.5
2023-04-15T16:15:43.598Z,63.5
2023-04-15T16:20:43.622Z,64.5
2023-04-15T16:25:43.588Z,65.0
2023-04-15T16:30:43.620Z,66.0
2023-04-15T16:35:43.588Z,66.5
2023-04-15T16:40:43.597Z,66.5
2023-04-15T16:45:43.634Z,66.5
2023-04-15T16:50:43.611Z,67.0
2023-04-15T16:55:43.608Z,67.5
2023-04-15T17:00:43.605Z,67.5
2023-04-15T17:05:43.598Z,68.0
2023-04-15T17:10:43.615Z,67.5
2023-04-15T17:15:43.658Z,67.5
2023-04-15T17:20:43.608Z,67.5
2023-04-15T17:25:43.612Z,68.0
2023-04-15T17:30:43.621Z,69.0
2023-04-15T17:35:43.599Z,69.5
2023-04-15T17:40:43.606Z,69.5
2023-04-15T17:45:43.614Z,70.0
2023-04-15T17:50:43.613Z,70.5
2023-04-15T17:55:43.614Z,71.0
2023-04-15T18:00:43.616Z,71.5
2023-04-15T18:05:43.609Z,72.0
2023-04-15T18:10:43.613Z,72.5
2023-04-15T18:15:45.625Z,72.5
2023-04-15T18:20:43.636Z,73.0
2023-04-15T18:25:43.628Z,73.5
2023-04-15T18:30:43.632Z,73.5
2023-04-15T18:35:43.622Z,74.0
2023-04-15T18:40:43.630Z,75.0
2023-04-15T18:45:43.647Z,75.5
2023-04-15T18:50:43.635Z,75.5
2023-04-15T18:55:43.648Z,77.0
2023-04-15T19:00:43.873Z,77.5
2023-04-15T19:05:43.678Z,78.5
2023-04-15T19:10:43.633Z,78.5
2023-04-15T19:15:43.631Z,79.0
2023-04-15T19:20:43.640Z,79.0
2023-04-15T19:25:43.633Z,79.0
2023-04-15T19:30:43.683Z,79.0
2023-04-15T19:35:43.644Z,79.5
2023-04-15T19:40:43.652Z,79.5
2023-04-15T19:45:43.671Z,80.0
2023-04-15T19:50:43.649Z,80.0
2023-04-15T19:55:43.648Z,80.0
2023-04-15T20:00:43.659Z,80.5
2023-04-15T20:05:43.649Z,80.5
2023-04-15T20:10:43.655Z,80.5
2023-04-15T20:15:43.724Z,81.0
2023-04-15T20:20:43.677Z,81.0
2023-04-15T20:25:43.650Z,81.5
2023-04-15T20:30:43.660Z,81.5
2023-04-15T20:35:43.753Z,82.0
2023-04-15T20:40:43.727Z,82.0
2023-04-15T20:45:43.661Z,82.5
2023-04-15T20:50:43.662Z,82.5
2023-04-15T20:55:43.664Z,82.5
2023-04-15T21:00:43.718Z,82.5
2023-04-15T21:05:43.669Z,82.5
2023-04-15T21:10:43.675Z,82.5
2023-04-15T21:15:43.677Z,82.5
2023-04-15T21:20:43.686Z,82.5
2023-04-15T21:25:43.680Z,82.5
2023-04-15T21:30:43.688Z,82.5
2023-04-15T21:35:43.682Z,83.0
2023-04-15T21:40:43.679Z,83.0
2023-04-15T21:45:43.772Z,83.0
2023-04-15T21:50:43.690Z,83.5
2023-04-15T21:55:43.678Z,83.5
2023-04-15T22:00:43.790Z,83.5
2023-04-15T22:05:43.682Z,84.0
2023-04-15T22:10:43.693Z,84.0
2023-04-15T22:15:43.696Z,84.0
2023-04-15T22:20:43.694Z,83.5
2023-04-15T22:25:43.693Z,83.5
2023-04-15T22:30:43.693Z,83.5
2023-04-15T22:35:43.697Z,84.0
2023-04-15T22:40:43.708Z,83.5
2023-04-15T22:45:43.705Z,84.0
2023-04-15T22:50:43.701Z,84.0
2023-04-15T22:55:43.705Z,84.5
2023-04-15T23:00:43.699Z,84.5
2023-04-15T23:05:43.715Z,85.0
2023-04-15T23:10:43.700Z,85.0
2023-04-15T23:15:43.713Z,86.0
2023-04-15T23:20:43.810Z,86.0
2023-04-15T23:25:43.721Z,86.0
2023-04-15T23:30:43.714Z,86.0
2023-04-15T23:35:43.723Z,86.0
2023-04-15T23:40:43.720Z,86.0
2023-04-15T23:45:43.718Z,86.0
2023-04-15T23:50:43.732Z,86.0
2023-04-15T23:55:43.728Z,86.0
